sensor_id;sensor_type;location;lat;lon;timestamp;pressure;altitude;pressure_sealevel;temperature;humidity
1726;BME280;41776;48.260;8.928;2023-05-20T00:00:34;52428.53;;;-145.69;100.00
1726;BME280;41776;48.260;8.928;2023-05-20T00:03:00;52430.53;;;-145.69;100.00
1726;BME280;41776;48.260;8.928;2023-05-20T00:05:27;52462.22;;;-145.69;100.00
1726;BME280;41776;48.260;8.928;2023-05-20T00:07:54;52468.16;;;-145.69;100.00
1726;BME280;41776;48.260;8.928;2023-05-20T00:10:21;52480.03;;;-145.69;100.00
1726;BME280;41776;48.260;8.928;2023-05-20T00:12:48;52412.69;;;-145.69;100.00
1726;BME280;41776;48.260;8.928;2023-05-20T00:15:15;52418.63;;;-145.69;100.00
1726;BME280;41776;48.260;8.928;2023-05-20T00:17:41;52402.78;;;-145.69;100.00
1726;BME280;41776;48.260;8.928;2023-05-20T00:20:08;52452.31;;;-145.69;100.00
1726;BME280;41776;48.260;8.928;2023-05-20T00:22:34;52440.44;;;-145.69;100.00
1726;BME280;41776;48.260;8.928;2023-05-20T00:25:01;52412.69;;;-145.69;100.00
1726;BME280;41776;48.260;8.928;2023-05-20T00:27:29;52450.31;;;-145.69;100.00
1726;BME280;41776;48.260;8.928;2023-05-20T00:29:55;52446.38;;;-145.69;100.00
1726;BME280;41776;48.260;8.928;2023-05-20T00:32:23;52452.31;;;-145.69;100.00
1726;BME280;41776;48.260;8.928;2023-05-20T00:34:56;52454.28;;;-145.69;100.00
1726;BME280;41776;48.260;8.928;2023-05-20T00:37:23;52446.38;;;-145.69;100.00
1726;BME280;41776;48.260;8.928;2023-05-20T00:39:50;52460.22;;;-145.69;100.00
1726;BME280;41776;48.260;8.928;2023-05-20T00:42:19;52478.06;;;-145.69;100.00
1726;BME280;41776;48.260;8.928;2023-05-20T00:44:49;52460.22;;;-145.69;100.00
1726;BME280;41776;48.260;8.928;2023-05-20T00:47:17;52487.97;;;-145.69;100.00
1726;BME280;41776;48.260;8.928;2023-05-20T00:49:47;52440.44;;;-145.69;100.00
1726;BME280;41776;48.260;8.928;2023-05-20T00:52:14;52472.13;;;-145.69;100.00
1726;BME280;41776;48.260;8.928;2023-05-20T00:54:41;52484.00;;;-145.69;100.00
1726;BME280;41776;48.260;8.928;2023-05-20T00:57:08;52440.44;;;-145.69;100.00
1726;BME280;41776;48.260;8.928;2023-05-20T00:59:36;52462.22;;;-145.69;100.00
1726;BME280;41776;48.260;8.928;2023-05-20T01:02:05;52452.31;;;-145.69;100.00
1726;BME280;41776;48.260;8.928;2023-05-20T01:04:32;52448.34;;;-145.69;100.00
1726;BME280;41776;48.260;8.928;2023-05-20T01:06:59;52480.03;;;-145.69;100.00
1726;BME280;41776;48.260;8.928;2023-05-20T01:09:28;52478.06;;;-145.69;100.00
1726;BME280;41776;48.260;8.928;2023-05-20T01:11:59;52444.38;;;-145.69;100.00
1726;BME280;41776;48.260;8.928;2023-05-20T01:14:29;52452.31;;;-145.69;100.00
1726;BME280;41776;48.260;8.928;2023-05-20T01:17:00;52474.09;;;-145.69;100.00
1726;BME280;41776;48.260;8.928;2023-05-20T01:19:40;52440.44;;;-145.69;100.00
1726;BME280;41776;48.260;8.928;2023-05-20T01:22:08;52448.34;;;-145.69;100.00
1726;BME280;41776;48.260;8.928;2023-05-20T01:24:40;52460.22;;;-145.69;100.00
1726;BME280;41776;48.260;8.928;2023-05-20T01:27:08;52424.59;;;-145.69;100.00
1726;BME280;41776;48.260;8.928;2023-05-20T01:29:35;52448.34;;;-145.69;100.00
1726;BME280;41776;48.260;8.928;2023-05-20T01:32:05;52491.91;;;-145.69;100.00
1726;BME280;41776;48.260;8.928;2023-05-20T01:34:34;52470.13;;;-145.69;100.00
1726;BME280;41776;48.260;8.928;2023-05-20T01:37:02;52507.75;;;-145.69;100.00
1726;BME280;41776;48.260;8.928;2023-05-20T01:39:31;52466.16;;;-145.69;100.00
1726;BME280;41776;48.260;8.928;2023-05-20T01:42:01;52472.13;;;-145.69;100.00
1726;BME280;41776;48.260;8.928;2023-05-20T01:44:28;52476.06;;;-145.69;100.00
1726;BME280;41776;48.260;8.928;2023-05-20T01:46:55;52460.22;;;-145.69;100.00
1726;BME280;41776;48.260;8.928;2023-05-20T01:49:22;52480.03;;;-145.69;100.00
1726;BME280;41776;48.260;8.928;2023-05-20T01:51:48;52497.84;;;-145.69;100.00
1726;BME280;41776;48.260;8.928;2023-05-20T01:54:15;52507.75;;;-145.69;100.00
1726;BME280;41776;48.260;8.928;2023-05-20T01:56:41;52458.25;;;-145.69;100.00
1726;BME280;41776;48.260;8.928;2023-05-20T01:59:09;52480.03;;;-145.69;100.00
1726;BME280;41776;48.260;8.928;2023-05-20T02:01:36;52484.00;;;-145.69;100.00
1726;BME280;41776;48.260;8.928;2023-05-20T02:04:03;52474.09;;;-145.69;100.00
1726;BME280;41776;48.260;8.928;2023-05-20T02:06:29;52476.06;;;-145.69;100.00
1726;BME280;41776;48.260;8.928;2023-05-20T02:08:56;52511.72;;;-145.69;100.00
1726;BME280;41776;48.260;8.928;2023-05-20T02:11:22;52482.00;;;-145.69;100.00
1726;BME280;41776;48.260;8.928;2023-05-20T02:13:49;52478.06;;;-145.69;100.00
1726;BME280;41776;48.260;8.928;2023-05-20T02:16:17;52501.81;;;-145.69;100.00
1726;BME280;41776;48.260;8.928;2023-05-20T02:18:43;52468.16;;;-145.69;100.00
1726;BME280;41776;48.260;8.928;2023-05-20T02:21:10;52456.28;;;-145.69;100.00
1726;BME280;41776;48.260;8.928;2023-05-20T02:23:36;52458.25;;;-145.69;100.00
1726;BME280;41776;48.260;8.928;2023-05-20T02:26:03;52472.13;;;-145.69;100.00
1726;BME280;41776;48.260;8.928;2023-05-20T02:28:29;52472.13;;;-145.69;100.00
1726;BME280;41776;48.260;8.928;2023-05-20T02:30:56;52499.84;;;-145.69;100.00
1726;BME280;41776;48.260;8.928;2023-05-20T02:33:24;52452.31;;;-145.69;100.00
1726;BME280;41776;48.260;8.928;2023-05-20T02:35:53;52487.97;;;-145.69;100.00
1726;BME280;41776;48.260;8.928;2023-05-20T02:38:19;52446.38;;;-145.69;100.00
1726;BME280;41776;48.260;8.928;2023-05-20T02:40:46;52428.53;;;-145.69;100.00
1726;BME280;41776;48.260;8.928;2023-05-20T02:43:12;52460.22;;;-145.69;100.00
1726;BME280;41776;48.260;8.928;2023-05-20T02:45:39;52456.28;;;-145.69;100.00
1726;BME280;41776;48.260;8.928;2023-05-20T02:48:05;52478.06;;;-145.69;100.00
1726;BME280;41776;48.260;8.928;2023-05-20T02:50:37;52478.06;;;-145.69;100.00
1726;BME280;41776;48.260;8.928;2023-05-20T02:53:03;52468.16;;;-145.69;100.00
1726;BME280;41776;48.260;8.928;2023-05-20T02:55:33;52460.22;;;-145.69;100.00
1726;BME280;41776;48.260;8.928;2023-05-20T02:57:59;52452.31;;;-145.69;100.00
1726;BME280;41776;48.260;8.928;2023-05-20T03:00:26;52466.16;;;-145.69;100.00
1726;BME280;41776;48.260;8.928;2023-05-20T03:02:54;52434.47;;;-145.69;100.00
1726;BME280;41776;48.260;8.928;2023-05-20T03:05:21;52478.06;;;-145.69;100.00
1726;BME280;41776;48.260;8.928;2023-05-20T03:07:49;52484.00;;;-145.69;100.00
1726;BME280;41776;48.260;8.928;2023-05-20T03:10:16;52489.94;;;-145.69;100.00
1726;BME280;41776;48.260;8.928;2023-05-20T03:12:42;52464.19;;;-145.69;100.00
1726;BME280;41776;48.260;8.928;2023-05-20T03:15:09;52452.31;;;-145.69;100.00
1726;BME280;41776;48.260;8.928;2023-05-20T03:17:36;52462.22;;;-145.69;100.00
1726;BME280;41776;48.260;8.928;2023-05-20T03:20:03;52491.91;;;-145.69;100.00
1726;BME280;41776;48.260;8.928;2023-05-20T03:22:32;52487.97;;;-145.69;100.00
1726;BME280;41776;48.260;8.928;2023-05-20T03:25:00;52472.13;;;-145.69;100.00
1726;BME280;41776;48.260;8.928;2023-05-20T03:27:26;52456.28;;;-145.69;100.00
1726;BME280;41776;48.260;8.928;2023-05-20T03:29:53;52487.97;;;-145.69;100.00
1726;BME280;41776;48.260;8.928;2023-05-20T03:32:19;52489.94;;;-145.69;100.00
1726;BME280;41776;48.260;8.928;2023-05-20T03:34:46;52487.97;;;-145.69;100.00
1726;BME280;41776;48.260;8.928;2023-05-20T03:37:12;52476.06;;;-145.69;100.00
1726;BME280;41776;48.260;8.928;2023-05-20T03:39:39;52452.31;;;-145.69;100.00
1726;BME280;41776;48.260;8.928;2023-05-20T03:42:07;52478.06;;;-145.69;100.00
1726;BME280;41776;48.260;8.928;2023-05-20T03:44:33;52452.31;;;-145.69;100.00
1726;BME280;41776;48.260;8.928;2023-05-20T03:47:00;52454.28;;;-145.69;100.00
1726;BME280;41776;48.260;8.928;2023-05-20T03:49:26;52476.06;;;-145.69;100.00
1726;BME280;41776;48.260;8.928;2023-05-20T03:51:53;52484.00;;;-145.69;100.00
1726;BME280;41776;48.260;8.928;2023-05-20T03:54:19;52466.16;;;-145.69;100.00
1726;BME280;41776;48.260;8.928;2023-05-20T03:56:46;52462.22;;;-145.69;100.00
1726;BME280;41776;48.260;8.928;2023-05-20T03:59:14;52517.66;;;-145.69;100.00
1726;BME280;41776;48.260;8.928;2023-05-20T04:01:42;52460.22;;;-145.69;100.00
1726;BME280;41776;48.260;8.928;2023-05-20T04:04:08;52478.06;;;-145.69;100.00
1726;BME280;41776;48.260;8.928;2023-05-20T04:06:35;52503.81;;;-145.69;100.00
1726;BME280;41776;48.260;8.928;2023-05-20T04:09:01;52464.19;;;-145.69;100.00
1726;BME280;41776;48.260;8.928;2023-05-20T04:11:28;52472.13;;;-145.69;100.00
1726;BME280;41776;48.260;8.928;2023-05-20T04:13:54;52484.00;;;-145.69;100.00
1726;BME280;41776;48.260;8.928;2023-05-20T04:16:24;52493.91;;;-145.69;100.00
1726;BME280;41776;48.260;8.928;2023-05-20T04:18:50;52464.19;;;-145.69;100.00
1726;BME280;41776;48.260;8.928;2023-05-20T04:21:17;52491.91;;;-145.69;100.00
1726;BME280;41776;48.260;8.928;2023-05-20T04:23:44;52480.03;;;-145.69;100.00
1726;BME280;41776;48.260;8.928;2023-05-20T04:26:10;52484.00;;;-145.69;100.00
1726;BME280;41776;48.260;8.928;2023-05-20T04:28:37;52480.03;;;-145.69;100.00
1726;BME280;41776;48.260;8.928;2023-05-20T04:31:06;52452.31;;;-145.69;100.00
1726;BME280;41776;48.260;8.928;2023-05-20T04:33:35;52462.22;;;-145.69;100.00
1726;BME280;41776;48.260;8.928;2023-05-20T04:36:03;52420.63;;;-145.69;100.00
1726;BME280;41776;48.260;8.928;2023-05-20T04:38:29;52487.97;;;-145.69;100.00
1726;BME280;41776;48.260;8.928;2023-05-20T04:40:56;52470.13;;;-145.69;100.00
1726;BME280;41776;48.260;8.928;2023-05-20T04:43:23;52472.13;;;-145.69;100.00
1726;BME280;41776;48.260;8.928;2023-05-20T04:45:50;52484.00;;;-145.69;100.00
1726;BME280;41776;48.260;8.928;2023-05-20T04:48:20;52458.25;;;-145.69;100.00
1726;BME280;41776;48.260;8.928;2023-05-20T04:50:48;52460.22;;;-145.69;100.00
1726;BME280;41776;48.260;8.928;2023-05-20T04:53:17;52480.03;;;-145.69;100.00
1726;BME280;41776;48.260;8.928;2023-05-20T04:55:44;52482.00;;;-145.69;100.00
1726;BME280;41776;48.260;8.928;2023-05-20T04:58:11;52468.16;;;-145.69;100.00
1726;BME280;41776;48.260;8.928;2023-05-20T05:00:40;52472.13;;;-145.69;100.00
1726;BME280;41776;48.260;8.928;2023-05-20T05:03:07;52460.22;;;-145.69;100.00
1726;BME280;41776;48.260;8.928;2023-05-20T05:05:34;52478.06;;;-145.69;100.00
1726;BME280;41776;48.260;8.928;2023-05-20T05:08:02;52452.31;;;-145.69;100.00
1726;BME280;41776;48.260;8.928;2023-05-20T05:10:29;52487.97;;;-145.69;100.00
1726;BME280;41776;48.260;8.928;2023-05-20T05:12:55;52499.84;;;-145.69;100.00
1726;BME280;41776;48.260;8.928;2023-05-20T05:15:22;52503.81;;;-145.69;100.00
1726;BME280;41776;48.260;8.928;2023-05-20T05:17:49;52484.00;;;-145.69;100.00
1726;BME280;41776;48.260;8.928;2023-05-20T05:20:16;52476.06;;;-145.69;100.00
1726;BME280;41776;48.260;8.928;2023-05-20T05:22:42;52450.31;;;-145.69;100.00
1726;BME280;41776;48.260;8.928;2023-05-20T05:25:11;52468.16;;;-145.69;100.00
1726;BME280;41776;48.260;8.928;2023-05-20T05:27:38;52495.88;;;-145.69;100.00
1726;BME280;41776;48.260;8.928;2023-05-20T05:30:05;52466.16;;;-145.69;100.00
1726;BME280;41776;48.260;8.928;2023-05-20T05:32:32;52497.84;;;-145.69;100.00
1726;BME280;41776;48.260;8.928;2023-05-20T05:34:59;52460.22;;;-145.69;100.00
1726;BME280;41776;48.260;8.928;2023-05-20T05:37:25;52485.97;;;-145.69;100.00
1726;BME280;41776;48.260;8.928;2023-05-20T05:39:52;52468.16;;;-145.69;100.00
1726;BME280;41776;48.260;8.928;2023-05-20T05:42:20;52452.31;;;-145.69;100.00
1726;BME280;41776;48.260;8.928;2023-05-20T05:44:46;52464.19;;;-145.69;100.00
1726;BME280;41776;48.260;8.928;2023-05-20T05:47:13;52444.38;;;-145.69;100.00
1726;BME280;41776;48.260;8.928;2023-05-20T05:49:40;52472.13;;;-145.69;100.00
1726;BME280;41776;48.260;8.928;2023-05-20T05:52:06;52460.22;;;-145.69;100.00
1726;BME280;41776;48.260;8.928;2023-05-20T05:54:33;52468.16;;;-145.69;100.00
1726;BME280;41776;48.260;8.928;2023-05-20T05:56:59;52444.38;;;-145.69;100.00
1726;BME280;41776;48.260;8.928;2023-05-20T05:59:27;52438.44;;;-145.69;100.00
1726;BME280;41776;48.260;8.928;2023-05-20T06:01:54;52428.53;;;-145.69;100.00
1726;BME280;41776;48.260;8.928;2023-05-20T06:04:20;52448.34;;;-145.69;100.00
1726;BME280;41776;48.260;8.928;2023-05-20T06:06:47;52432.50;;;-145.69;100.00
1726;BME280;41776;48.260;8.928;2023-05-20T06:09:14;52392.91;;;-145.69;100.00
1726;BME280;41776;48.260;8.928;2023-05-20T06:11:40;52430.53;;;-145.69;100.00
1726;BME280;41776;48.260;8.928;2023-05-20T06:14:08;52402.78;;;-145.69;100.00
1726;BME280;41776;48.260;8.928;2023-05-20T06:16:36;52456.28;;;-145.69;100.00
1726;BME280;41776;48.260;8.928;2023-05-20T06:19:03;52412.69;;;-145.69;100.00
1726;BME280;41776;48.260;8.928;2023-05-20T06:21:30;52412.69;;;-145.69;100.00
1726;BME280;41776;48.260;8.928;2023-05-20T06:23:57;52420.63;;;-145.69;100.00
1726;BME280;41776;48.260;8.928;2023-05-20T06:26:23;52416.66;;;-145.69;100.00
1726;BME280;41776;48.260;8.928;2023-05-20T06:28:50;52440.44;;;-145.69;100.00
1726;BME280;41776;48.260;8.928;2023-05-20T06:31:17;52468.16;;;-145.69;100.00
1726;BME280;41776;48.260;8.928;2023-05-20T06:33:45;52422.59;;;-145.69;100.00
1726;BME280;41776;48.260;8.928;2023-05-20T06:36:11;52460.22;;;-145.69;100.00
1726;BME280;41776;48.260;8.928;2023-05-20T06:38:38;52450.31;;;-145.69;100.00
1726;BME280;41776;48.260;8.928;2023-05-20T06:41:04;52410.72;;;-145.69;100.00
1726;BME280;41776;48.260;8.928;2023-05-20T06:43:31;52436.47;;;-145.69;100.00
1726;BME280;41776;48.260;8.928;2023-05-20T06:45:58;52440.44;;;-145.69;100.00
1726;BME280;41776;48.260;8.928;2023-05-20T06:48:24;52446.38;;;-145.69;100.00
1726;BME280;41776;48.260;8.928;2023-05-20T06:50:52;52424.59;;;-145.69;100.00
1726;BME280;41776;48.260;8.928;2023-05-20T06:53:19;52452.31;;;-145.69;100.00
1726;BME280;41776;48.260;8.928;2023-05-20T06:55:45;52426.56;;;-145.69;100.00
1726;BME280;41776;48.260;8.928;2023-05-20T06:58:12;52440.44;;;-145.69;100.00
1726;BME280;41776;48.260;8.928;2023-05-20T07:00:38;52420.63;;;-145.69;100.00
1726;BME280;41776;48.260;8.928;2023-05-20T07:03:05;52428.53;;;-145.69;100.00
1726;BME280;41776;48.260;8.928;2023-05-20T07:05:32;52412.69;;;-145.69;100.00
1726;BME280;41776;48.260;8.928;2023-05-20T07:08:00;52400.81;;;-145.69;100.00
1726;BME280;41776;48.260;8.928;2023-05-20T07:10:26;52432.50;;;-145.69;100.00
1726;BME280;41776;48.260;8.928;2023-05-20T07:12:53;52450.31;;;-145.69;100.00
1726;BME280;41776;48.260;8.928;2023-05-20T07:15:19;52444.38;;;-145.69;100.00
1726;BME280;41776;48.260;8.928;2023-05-20T07:17:46;52408.75;;;-145.69;100.00
1726;BME280;41776;48.260;8.928;2023-05-20T07:20:12;52400.81;;;-145.69;100.00
1726;BME280;41776;48.260;8.928;2023-05-20T07:22:39;52400.81;;;-145.69;100.00
1726;BME280;41776;48.260;8.928;2023-05-20T07:25:07;52381.00;;;-145.69;100.00
1726;BME280;41776;48.260;8.928;2023-05-20T07:27:34;52400.81;;;-145.69;100.00
1726;BME280;41776;48.260;8.928;2023-05-20T07:30:00;52375.06;;;-145.69;100.00
1726;BME280;41776;48.260;8.928;2023-05-20T07:32:27;52410.72;;;-145.69;100.00
1726;BME280;41776;48.260;8.928;2023-05-20T07:34:53;52394.88;;;-145.69;100.00
1726;BME280;41776;48.260;8.928;2023-05-20T07:37:20;52392.91;;;-145.69;100.00
1726;BME280;41776;48.260;8.928;2023-05-20T07:39:46;52392.91;;;-145.69;100.00
1726;BME280;41776;48.260;8.928;2023-05-20T07:42:14;52398.84;;;-145.69;100.00
1726;BME280;41776;48.260;8.928;2023-05-20T07:44:41;52392.91;;;-145.69;100.00
1726;BME280;41776;48.260;8.928;2023-05-20T07:47:07;52369.13;;;-145.69;100.00
1726;BME280;41776;48.260;8.928;2023-05-20T07:49:34;52349.31;;;-145.69;100.00
1726;BME280;41776;48.260;8.928;2023-05-20T07:52:00;52377.06;;;-145.69;100.00
1726;BME280;41776;48.260;8.928;2023-05-20T07:54:27;52355.28;;;-145.69;100.00
1726;BME280;41776;48.260;8.928;2023-05-20T07:56:53;52375.06;;;-145.69;100.00
1726;BME280;41776;48.260;8.928;2023-05-20T07:59:24;52329.53;;;-145.69;100.00
1726;BME280;41776;48.260;8.928;2023-05-20T08:01:51;52367.16;;;-145.69;100.00
1726;BME280;41776;48.260;8.928;2023-05-20T08:04:18;52377.06;;;-145.69;99.01
1726;BME280;41776;48.260;8.928;2023-05-20T08:06:44;52325.56;;;-145.69;94.78
1726;BME280;41776;48.260;8.928;2023-05-20T08:09:11;52369.13;;;-145.69;96.31
1726;BME280;41776;48.260;8.928;2023-05-20T08:11:38;52329.53;;;-145.69;97.28
1726;BME280;41776;48.260;8.928;2023-05-20T08:14:06;52345.38;;;-145.69;91.26
1726;BME280;41776;48.260;8.928;2023-05-20T08:16:34;52337.44;;;-145.69;89.01
1726;BME280;41776;48.260;8.928;2023-05-20T08:19:01;52335.47;;;-145.69;81.84
1726;BME280;41776;48.260;8.928;2023-05-20T08:21:28;52329.53;;;-145.69;76.78
1726;BME280;41776;48.260;8.928;2023-05-20T08:23:54;52301.81;;;-145.69;82.05
1726;BME280;41776;48.260;8.928;2023-05-20T08:26:21;52329.53;;;-145.69;85.62
1726;BME280;41776;48.260;8.928;2023-05-20T08:28:47;52323.59;;;-145.69;86.88
1726;BME280;41776;48.260;8.928;2023-05-20T08:31:14;52305.75;;;-145.69;86.67
1726;BME280;41776;48.260;8.928;2023-05-20T08:33:43;52305.75;;;-145.69;79.07
1726;BME280;41776;48.260;8.928;2023-05-20T08:36:09;52317.66;;;-145.69;78.10
1726;BME280;41776;48.260;8.928;2023-05-20T08:38:36;52323.59;;;-145.69;73.00
1726;BME280;41776;48.260;8.928;2023-05-20T08:41:02;52262.19;;;-145.69;77.00
1726;BME280;41776;48.260;8.928;2023-05-20T08:43:29;52313.69;;;-145.69;75.42
1726;BME280;41776;48.260;8.928;2023-05-20T08:45:56;52331.50;;;-145.69;75.50
1726;BME280;41776;48.260;8.928;2023-05-20T08:48:25;52282.00;;;-145.69;75.00
1726;BME280;41776;48.260;8.928;2023-05-20T08:50:55;52305.75;;;-145.69;66.90
1726;BME280;41776;48.260;8.928;2023-05-20T08:53:22;52301.81;;;-145.69;71.27
1726;BME280;41776;48.260;8.928;2023-05-20T08:55:52;52299.81;;;-145.69;76.43
1726;BME280;41776;48.260;8.928;2023-05-20T08:58:22;52327.53;;;-145.69;81.64
1726;BME280;41776;48.260;8.928;2023-05-20T09:00:48;52315.66;;;-145.69;84.01
1726;BME280;41776;48.260;8.928;2023-05-20T09:03:15;52309.72;;;-145.69;80.27
1726;BME280;41776;48.260;8.928;2023-05-20T09:05:42;52287.94;;;-145.69;76.04
1726;BME280;41776;48.260;8.928;2023-05-20T09:08:10;52282.00;;;-145.69;80.17
1726;BME280;41776;48.260;8.928;2023-05-20T09:10:38;52285.97;;;-145.69;81.37
1726;BME280;41776;48.260;8.928;2023-05-20T09:13:06;52262.19;;;-145.69;73.54
1726;BME280;41776;48.260;8.928;2023-05-20T09:15:34;52262.19;;;-145.69;72.29
1726;BME280;41776;48.260;8.928;2023-05-20T09:18:01;52274.06;;;-145.69;68.83
1726;BME280;41776;48.260;8.928;2023-05-20T09:20:28;52276.06;;;-145.69;68.74
1726;BME280;41776;48.260;8.928;2023-05-20T09:22:58;52242.38;;;-145.69;70.07
1726;BME280;41776;48.260;8.928;2023-05-20T09:25:26;52299.81;;;-145.69;64.38
1726;BME280;41776;48.260;8.928;2023-05-20T09:27:53;52268.13;;;-145.69;69.01
1726;BME280;41776;48.260;8.928;2023-05-20T09:30:20;52242.38;;;-145.69;65.96
1726;BME280;41776;48.260;8.928;2023-05-20T09:32:51;52258.22;;;-145.69;64.28
1726;BME280;41776;48.260;8.928;2023-05-20T09:35:18;52307.75;;;-145.69;66.46
1726;BME280;41776;48.260;8.928;2023-05-20T09:37:45;52248.34;;;-145.69;68.40
1726;BME280;41776;48.260;8.928;2023-05-20T09:40:14;52305.75;;;-145.69;67.70
1726;BME280;41776;48.260;8.928;2023-05-20T09:42:50;52250.31;;;-145.69;66.68
1726;BME280;41776;48.260;8.928;2023-05-20T09:45:17;52283.97;;;-145.69;67.34
1726;BME280;41776;48.260;8.928;2023-05-20T09:47:44;52258.22;;;-145.69;68.04
1726;BME280;41776;48.260;8.928;2023-05-20T09:50:11;52287.94;;;-145.69;68.82
1726;BME280;41776;48.260;8.928;2023-05-20T09:52:42;52285.97;;;-145.69;67.79
1726;BME280;41776;48.260;8.928;2023-05-20T09:55:09;52309.72;;;-145.69;67.40
1726;BME280;41776;48.260;8.928;2023-05-20T09:57:37;52285.97;;;-145.69;60.99
1726;BME280;41776;48.260;8.928;2023-05-20T10:00:06;52262.19;;;-145.69;64.36
1726;BME280;41776;48.260;8.928;2023-05-20T10:02:34;52278.03;;;-145.69;60.46
1726;BME280;41776;48.260;8.928;2023-05-20T10:05:04;52285.97;;;-145.69;61.42
1726;BME280;41776;48.260;8.928;2023-05-20T10:07:50;52266.16;;;-145.69;61.71
1726;BME280;41776;48.260;8.928;2023-05-20T10:10:28;52226.53;;;-145.69;58.76
1726;BME280;41776;48.260;8.928;2023-05-20T10:13:06;52254.28;;;-145.69;64.53
1726;BME280;41776;48.260;8.928;2023-05-20T10:15:45;52238.44;;;-145.69;59.06
1726;BME280;41776;48.260;8.928;2023-05-20T10:18:23;52270.13;;;-145.69;60.02
1726;BME280;41776;48.260;8.928;2023-05-20T10:20:53;52242.38;;;-145.69;63.55
1726;BME280;41776;48.260;8.928;2023-05-20T10:23:21;52246.34;;;-145.69;63.31
1726;BME280;41776;48.260;8.928;2023-05-20T10:25:52;52240.41;;;-145.69;58.54
1726;BME280;41776;48.260;8.928;2023-05-20T10:28:39;52274.06;;;-145.69;58.86
1726;BME280;41776;48.260;8.928;2023-05-20T10:31:16;52232.50;;;-145.69;61.74
1726;BME280;41776;48.260;8.928;2023-05-20T10:33:44;52236.44;;;-145.69;67.87
1726;BME280;41776;48.260;8.928;2023-05-20T10:36:21;52262.19;;;-145.69;71.17
1726;BME280;41776;48.260;8.928;2023-05-20T10:38:51;52274.06;;;-145.69;69.52
1726;BME280;41776;48.260;8.928;2023-05-20T10:41:22;52260.22;;;-145.69;62.69
1726;BME280;41776;48.260;8.928;2023-05-20T10:43:59;52266.16;;;-145.69;69.76
1726;BME280;41776;48.260;8.928;2023-05-20T10:46:28;52250.31;;;-145.69;73.67
1726;BME280;41776;48.260;8.928;2023-05-20T10:48:54;52232.50;;;-145.69;76.53
1726;BME280;41776;48.260;8.928;2023-05-20T10:51:22;52258.22;;;-145.69;75.52
1726;BME280;41776;48.260;8.928;2023-05-20T10:53:52;52258.22;;;-145.69;70.41
1726;BME280;41776;48.260;8.928;2023-05-20T10:56:20;52248.34;;;-145.69;69.31
1726;BME280;41776;48.260;8.928;2023-05-20T10:58:47;52238.44;;;-145.69;69.39
1726;BME280;41776;48.260;8.928;2023-05-20T11:01:15;52250.31;;;-145.69;71.99
1726;BME280;41776;48.260;8.928;2023-05-20T11:03:45;52285.97;;;-145.69;71.93
1726;BME280;41776;48.260;8.928;2023-05-20T11:06:12;52268.13;;;-145.69;70.73
1726;BME280;41776;48.260;8.928;2023-05-20T11:08:39;52264.16;;;-145.69;72.25
1726;BME280;41776;48.260;8.928;2023-05-20T11:11:06;52248.34;;;-145.69;66.66
1726;BME280;41776;48.260;8.928;2023-05-20T11:13:35;52234.47;;;-145.69;64.07
1726;BME280;41776;48.260;8.928;2023-05-20T11:16:02;52250.31;;;-145.69;64.51
1726;BME280;41776;48.260;8.928;2023-05-20T11:18:29;52236.44;;;-145.69;66.78
1726;BME280;41776;48.260;8.928;2023-05-20T11:20:59;52240.41;;;-145.69;69.12
1726;BME280;41776;48.260;8.928;2023-05-20T11:23:27;52244.38;;;-145.69;68.70
1726;BME280;41776;48.260;8.928;2023-05-20T11:25:55;52210.72;;;-145.69;63.42
1726;BME280;41776;48.260;8.928;2023-05-20T11:28:22;52224.56;;;-145.69;65.93
1726;BME280;41776;48.260;8.928;2023-05-20T11:30:50;52238.44;;;-145.69;74.03
1726;BME280;41776;48.260;8.928;2023-05-20T11:33:17;52234.47;;;-145.69;68.39
1726;BME280;41776;48.260;8.928;2023-05-20T11:35:44;52262.19;;;-145.69;68.99
1726;BME280;41776;48.260;8.928;2023-05-20T11:38:13;52256.25;;;-145.69;65.25
1726;BME280;41776;48.260;8.928;2023-05-20T11:40:43;52244.38;;;-145.69;73.48
1726;BME280;41776;48.260;8.928;2023-05-20T11:43:11;52246.34;;;-145.69;70.08
1726;BME280;41776;48.260;8.928;2023-05-20T11:45:39;52218.63;;;-145.69;69.63
1726;BME280;41776;48.260;8.928;2023-05-20T11:48:08;52220.59;;;-145.69;72.67
1726;BME280;41776;48.260;8.928;2023-05-20T11:50:37;52242.38;;;-145.69;64.91
1726;BME280;41776;48.260;8.928;2023-05-20T11:53:06;52208.72;;;-145.69;69.11
1726;BME280;41776;48.260;8.928;2023-05-20T11:55:44;52246.34;;;-145.69;66.36
1726;BME280;41776;48.260;8.928;2023-05-20T11:58:14;52208.72;;;-145.69;62.33
1726;BME280;41776;48.260;8.928;2023-05-20T12:00:41;52262.19;;;-145.69;64.89
1726;BME280;41776;48.260;8.928;2023-05-20T12:03:07;52246.34;;;-145.69;64.61
1726;BME280;41776;48.260;8.928;2023-05-20T12:05:34;52206.75;;;-145.69;62.67
1726;BME280;41776;48.260;8.928;2023-05-20T12:08:00;52236.44;;;-145.69;63.82
1726;BME280;41776;48.260;8.928;2023-05-20T12:10:28;52218.63;;;-145.69;63.89
1726;BME280;41776;48.260;8.928;2023-05-20T12:12:56;52206.75;;;-145.69;61.11
1726;BME280;41776;48.260;8.928;2023-05-20T12:15:23;52222.59;;;-145.69;62.55
1726;BME280;41776;48.260;8.928;2023-05-20T12:17:51;52226.53;;;-145.69;65.80
1726;BME280;41776;48.260;8.928;2023-05-20T12:20:23;52210.72;;;-145.69;57.50
1726;BME280;41776;48.260;8.928;2023-05-20T12:22:50;52190.91;;;-145.69;61.26
1726;BME280;41776;48.260;8.928;2023-05-20T12:25:18;52161.19;;;-145.69;53.15
1726;BME280;41776;48.260;8.928;2023-05-20T12:27:47;52190.91;;;-145.69;55.15
1726;BME280;41776;48.260;8.928;2023-05-20T12:30:17;52177.03;;;-145.69;58.48
1726;BME280;41776;48.260;8.928;2023-05-20T12:32:45;52175.06;;;-145.69;53.61
1726;BME280;41776;48.260;8.928;2023-05-20T12:35:12;52200.81;;;-145.69;53.83
1726;BME280;41776;48.260;8.928;2023-05-20T12:37:40;52220.59;;;-145.69;55.53
1726;BME280;41776;48.260;8.928;2023-05-20T12:40:08;52220.59;;;-145.69;56.08
1726;BME280;41776;48.260;8.928;2023-05-20T12:42:35;52208.72;;;-145.69;57.78
1726;BME280;41776;48.260;8.928;2023-05-20T12:45:03;52196.84;;;-145.69;54.70